Time;durP1;ratioP1;P1;durP2;ratioP2;P2;SDS_P1;SDS_P2;PMS_P1;PMS_P2;Temp;Humidity;BMP_temperature;BMP_pressure;BME280_temperature;BME280_humidity;BME280_pressure;Samples;Min_cycle;Max_cycle;Signal;HPM_P1;HPM_P2
2021/10/26 19:09:29;;;;;;;27.23;16.43;;;;;;;5.85;78.19;100806.50;5005867;27;3504514;-67
2021/10/26 19:11:55;;;;;;;23.30;15.23;;;;;;;6.04;77.63;100828.75;5109362;28;20123;-62
2021/10/26 19:14:20;;;;;;;22.13;14.50;;;;;;;6.12;77.80;100835.06;5108263;28;20166;-66
2021/10/26 19:16:46;;;;;;;21.30;13.87;;;;;;;6.26;77.40;100840.94;5108203;28;20032;-66
2021/10/26 19:19:12;;;;;;;22.07;15.80;;;;;;;6.19;77.04;100820.34;5109406;28;20547;-66
2021/10/26 19:21:38;;;;;;;27.77;15.40;;;;;;;6.30;77.39;100816.75;5109346;28;20038;-65
2021/10/26 19:24:04;;;;;;;23.20;15.30;;;;;;;6.35;77.00;100819.81;5109325;28;20023;-67
2021/10/26 19:26:30;;;;;;;20.63;14.83;;;;;;;6.36;76.46;100813.59;5108454;28;20092;-70
2021/10/26 19:28:55;;;;;;;23.93;15.03;;;;;;;6.44;76.70;100826.13;5109680;28;20032;-66
2021/10/26 19:31:21;;;;;;;23.23;14.47;;;;;;;6.45;76.45;100822.53;5109403;28;20020;-65
2021/10/26 19:33:46;;;;;;;19.23;14.90;;;;;;;6.48;76.33;100820.44;5108043;28;20074;-65
2021/10/26 19:36:25;;;;;;;27.43;15.80;;;;;;;6.45;76.38;100804.84;5109183;28;20103;-67
2021/10/26 19:39:04;;;;;;;19.73;13.73;;;;;;;6.56;76.28;100817.13;5090817;28;20574;-65
2021/10/26 19:41:40;;;;;;;21.20;14.13;;;;;;;6.36;76.37;100784.50;5108986;28;20071;-64
2021/10/26 19:47:38;;;;;;;20.30;14.93;;;;;;;6.28;76.17;100764.97;5112046;28;20116;-65
2021/10/26 19:50:28;;;;;;;22.57;15.27;;;;;;;6.50;75.99;100797.31;5112878;28;20069;-67
2021/10/26 19:53:06;;;;;;;21.27;15.37;;;;;;;6.49;76.05;100787.72;5107748;28;20049;-74
2021/10/26 19:55:32;;;;;;;22.40;14.35;;;;;;;6.62;76.05;100805.13;5109838;28;20024;-69
2021/10/26 19:57:58;;;;;;;21.77;14.07;;;;;;;6.65;75.67;100799.56;5107456;28;20031;-73
2021/10/26 20:00:23;;;;;;;23.47;15.30;;;;;;;6.64;76.27;100792.59;5107042;28;20028;-69
2021/10/26 20:02:54;;;;;;;21.87;15.27;;;;;;;6.65;76.35;100800.44;5110636;28;20069;-67
2021/10/26 20:05:19;;;;;;;22.47;13.77;;;;;;;6.67;76.66;100787.06;5108581;28;20024;-68
2021/10/26 20:07:49;;;;;;;23.83;14.27;;;;;;;6.63;75.74;100775.06;5114481;28;20429;-68
2021/10/26 20:10:17;;;;;;;25.13;13.63;;;;;;;6.61;75.96;100785.78;5130024;28;20138;-72
2021/10/26 20:12:44;;;;;;;22.60;16.13;;;;;;;6.63;76.14;100797.06;5130199;28;20054;-74
2021/10/26 20:15:09;;;;;;;22.57;14.77;;;;;;;6.47;76.03;100765.84;5129839;28;20034;-74
2021/10/26 20:17:36;;;;;;;25.17;16.13;;;;;;;6.66;76.25;100795.97;5129685;28;20023;-71
2021/10/26 20:20:09;;;;;;;22.37;15.67;;;;;;;6.63;76.66;100785.63;5099779;28;20019;-71
2021/10/26 20:22:45;;;;;;;26.73;15.53;;;;;;;6.66;76.34;100780.94;5101091;28;20033;-73
2021/10/26 20:25:21;;;;;;;23.57;15.30;;;;;;;6.71;76.37;100788.47;5121910;28;20043;-73
2021/10/26 20:28:09;;;;;;;24.33;15.47;;;;;;;6.61;76.20;100763.78;5117477;28;20529;-72
2021/10/26 20:30:35;;;;;;;23.83;15.70;;;;;;;6.65;75.97;100767.81;5113355;28;20077;-72
2021/10/26 20:33:02;;;;;;;21.57;15.97;;;;;;;6.68;75.95;100767.56;5114644;28;20028;-73
2021/10/26 20:35:28;;;;;;;22.83;15.33;;;;;;;6.72;76.00;100775.09;5115061;28;20118;-72
2021/10/26 20:37:54;;;;;;;24.03;15.80;;;;;;;6.71;75.81;100776.06;5114779;28;20451;-70
2021/10/26 20:40:21;;;;;;;20.27;15.33;;;;;;;6.73;75.98;100776.75;5095147;28;20027;-69
2021/10/26 20:42:48;;;;;;;24.37;15.23;;;;;;;6.71;75.40;100767.28;5114103;28;20379;-68
2021/10/26 20:45:14;;;;;;;21.37;14.83;;;;;;;6.64;75.90;100755.56;5113587;28;20055;-72
2021/10/26 20:47:40;;;;;;;26.67;17.57;;;;;;;6.62;76.25;100763.63;5113324;28;20079;-72
2021/10/26 20:50:09;;;;;;;27.93;16.87;;;;;;;6.64;76.81;100766.16;5113294;28;20118;-72
2021/10/26 20:52:39;;;;;;;25.53;17.10;;;;;;;6.62;76.68;100758.34;5111306;28;20102;-70
2021/10/26 20:55:06;;;;;;;20.57;14.20;;;;;;;6.67;76.32;100766.72;5114629;28;20031;-74
2021/10/26 20:57:32;;;;;;;23.30;16.77;;;;;;;6.70;76.48;100762.97;5096274;28;20027;-74
2021/10/26 20:59:59;;;;;;;24.23;15.53;;;;;;;6.71;76.22;100756.72;5096272;28;20057;-71
2021/10/26 21:02:26;;;;;;;22.93;16.03;;;;;;;6.78;75.58;100758.66;5096528;28;20031;-70
2021/10/26 21:04:52;;;;;;;25.93;14.77;;;;;;;6.74;76.94;100754.63;5114465;28;20368;-72
2021/10/26 21:07:25;;;;;;;24.10;17.23;;;;;;;6.77;76.30;100761.44;5113865;28;20027;-71
2021/10/26 21:09:51;;;;;;;26.90;16.60;;;;;;;6.64;76.95;100744.97;5112596;28;20035;-72
2021/10/26 21:12:20;;;;;;;25.52;15.52;;;;;;;6.64;77.21;100759.03;5114496;28;20046;-70
2021/10/26 21:14:45;;;;;;;22.37;15.73;;;;;;;6.29;76.91;100693.41;5095883;28;20369;-71
2021/10/26 21:17:11;;;;;;;20.50;15.90;;;;;;;6.65;77.36;100752.81;5114118;28;20027;-69
2021/10/26 21:19:37;;;;;;;25.03;15.37;;;;;;;6.64;77.14;100751.09;5114123;28;20051;-74
2021/10/26 21:22:03;;;;;;;26.40;15.77;;;;;;;6.57;76.79;100739.41;5114487;28;20032;-71
2021/10/26 21:24:28;;;;;;;26.80;16.77;;;;;;;6.59;77.33;100732.16;5095673;28;20019;-65
2021/10/26 21:26:54;;;;;;;19.40;13.43;;;;;;;6.62;77.44;100745.13;5113583;28;20112;-70
2021/10/26 21:29:20;;;;;;;20.40;14.70;;;;;;;6.59;77.10;100733.97;5113361;28;20035;-69
2021/10/26 21:31:46;;;;;;;23.00;14.33;;;;;;;6.59;76.64;100723.38;5112899;28;20055;-67
2021/10/26 21:34:19;;;;;;;20.23;13.90;;;;;;;6.63;77.15;100727.44;5110814;28;20436;-71
2021/10/26 21:39:12;;;;;;;23.23;14.87;;;;;;;6.61;77.27;100718.78;5114012;28;20425;-73
2021/10/26 21:41:39;;;;;;;19.33;13.57;;;;;;;6.61;77.18;100714.34;5111021;28;20072;-69
2021/10/26 21:44:07;;;;;;;18.13;13.88;;;;;;;6.65;76.90;100723.69;5113384;28;20028;-68
2021/10/26 21:46:34;;;;;;;20.57;14.57;;;;;;;6.68;77.16;100722.59;5113534;28;20027;-70
2021/10/26 21:49:07;;;;;;;21.55;13.13;;;;;;;6.67;77.50;100708.50;5095647;28;20028;-69
2021/10/26 21:51:33;;;;;;;17.90;15.17;;;;;;;6.66;77.51;100709.50;5113880;28;20027;-71
2021/10/26 21:53:59;;;;;;;19.70;13.43;;;;;;;6.66;77.93;100692.78;5114049;28;20038;-70
2021/10/26 21:56:24;;;;;;;26.43;14.67;;;;;;;6.68;77.65;100704.88;5113769;28;20122;-75
2021/10/26 21:58:50;;;;;;;17.73;13.57;;;;;;;6.66;78.19;100700.72;5114276;28;20030;-70
2021/10/26 22:01:16;;;;;;;17.50;12.77;;;;;;;6.68;78.67;100704.06;5096657;28;20019;-70
2021/10/26 22:03:42;;;;;;;21.10;12.90;;;;;;;6.62;78.64;100699.28;5113717;28;20024;-74
2021/10/26 22:06:12;;;;;;;22.07;14.60;;;;;;;6.53;79.38;100685.94;5114005;28;20031;-73
2021/10/26 22:08:40;;;;;;;22.80;14.00;;;;;;;6.48;79.97;100685.50;5113464;28;20055;-74
2021/10/26 22:11:08;;;;;;;15.07;12.43;;;;;;;6.54;79.68;100694.69;5113240;28;20391;-72
2021/10/26 22:13:35;;;;;;;15.57;12.52;;;;;;;6.50;80.20;100680.09;5113653;28;20441;-71
2021/10/26 22:16:05;;;;;;;17.87;13.07;;;;;;;6.52;80.68;100683.41;5113255;28;20390;-68
2021/10/26 22:18:34;;;;;;;18.63;13.90;;;;;;;6.52;80.76;100678.13;5095098;28;20411;-68
2021/10/26 22:21:03;;;;;;;14.40;11.38;;;;;;;6.44;80.35;100673.53;5094920;28;20062;-68
2021/10/26 22:23:29;;;;;;;18.70;12.30;;;;;;;6.39;81.28;100657.25;5113025;28;20035;-69
2021/10/26 22:25:56;;;;;;;17.37;13.03;;;;;;;6.50;81.01;100678.28;5113321;28;20020;-67
2021/10/26 22:28:23;;;;;;;17.13;13.70;;;;;;;6.49;81.04;100666.00;5113084;28;20059;-66
2021/10/26 22:30:48;;;;;;;18.07;12.87;;;;;;;6.49;81.75;100665.19;5113157;28;20502;-67
2021/10/26 22:33:14;;;;;;;17.23;12.13;;;;;;;6.31;81.12;100633.28;5094790;28;20023;-69
2021/10/26 22:35:40;;;;;;;17.20;12.90;;;;;;;6.43;82.19;100661.28;5112996;28;20473;-68
2021/10/26 22:38:05;;;;;;;17.63;12.73;;;;;;;6.34;82.12;100643.56;5112712;28;20020;-67
2021/10/26 22:40:31;;;;;;;18.27;13.10;;;;;;;6.36;82.32;100654.00;5113019;28;20030;-68
2021/10/26 22:43:00;;;;;;;15.57;13.33;;;;;;;6.37;82.41;100648.63;5112573;28;20031;-68
2021/10/26 22:45:26;;;;;;;17.20;12.32;;;;;;;6.37;82.81;100637.19;5112803;28;20027;-67
2021/10/26 22:47:52;;;;;;;17.00;12.67;;;;;;;6.33;82.13;100623.38;5112694;28;20474;-67
2021/10/26 22:50:17;;;;;;;17.13;14.00;;;;;;;6.31;82.13;100625.34;5112628;28;20024;-68
2021/10/26 22:52:43;;;;;;;18.87;14.50;;;;;;;6.39;82.40;100625.50;5112540;28;20494;-66
2021/10/26 22:55:10;;;;;;;16.83;12.10;;;;;;;6.26;82.26;100619.63;5112894;28;20073;-66
2021/10/26 22:57:35;;;;;;;16.03;12.40;;;;;;;6.32;82.29;100634.94;5112668;28;20499;-67
2021/10/26 23:00:01;;;;;;;20.50;14.63;;;;;;;6.26;82.68;100618.81;5112721;28;20033;-67
2021/10/26 23:02:26;;;;;;;16.77;13.80;;;;;;;6.29;82.84;100619.34;5112611;28;20023;-68
2021/10/26 23:04:52;;;;;;;19.60;14.60;;;;;;;6.27;83.48;100615.19;5094306;28;20421;-66
2021/10/26 23:07:21;;;;;;;16.73;14.00;;;;;;;6.29;83.51;100619.34;5093687;28;20122;-68
2021/10/26 23:09:51;;;;;;;23.13;15.50;;;;;;;6.30;83.18;100618.38;5112667;28;20039;-69
2021/10/26 23:12:16;;;;;;;18.83;13.93;;;;;;;6.22;83.31;100612.97;5112640;28;20359;-68
2021/10/26 23:14:42;;;;;;;15.97;13.23;;;;;;;6.25;83.44;100612.69;5112386;28;20049;-66
2021/10/26 23:17:07;;;;;;;13.43;11.97;;;;;;;6.30;83.59;100615.75;5094021;28;20568;-69
2021/10/26 23:19:33;;;;;;;16.97;13.87;;;;;;;6.22;83.86;100597.94;5094687;28;20031;-68
2021/10/26 23:21:58;;;;;;;14.87;12.47;;;;;;;6.26;83.42;100598.47;5112128;28;20061;-67
2021/10/26 23:24:25;;;;;;;19.10;12.20;;;;;;;6.26;83.69;100592.34;5112543;28;20058;-67
2021/10/26 23:26:51;;;;;;;17.27;12.43;;;;;;;6.30;83.18;100606.97;5112493;28;20031;-65
2021/10/26 23:29:16;;;;;;;14.03;12.00;;;;;;;6.29;83.83;100592.91;5094223;28;20032;-67
2021/10/26 23:31:41;;;;;;;16.87;11.83;;;;;;;6.19;83.94;100576.22;5112167;28;20038;-68
2021/10/26 23:34:07;;;;;;;14.30;10.93;;;;;;;6.24;84.24;100600.44;5112050;28;20023;-66
2021/10/26 23:36:32;;;;;;;14.83;11.37;;;;;;;6.22;83.21;100586.50;5112028;28;20034;-66
2021/10/26 23:38:58;;;;;;;14.40;11.13;;;;;;;6.23;84.29;100580.25;5094055;28;20059;-67
2021/10/26 23:41:23;;;;;;;15.63;11.70;;;;;;;6.21;84.61;100576.91;5112262;28;20104;-69
2021/10/26 23:43:49;;;;;;;14.07;11.30;;;;;;;6.20;84.53;100580.53;5112387;28;20049;-69
2021/10/26 23:46:14;;;;;;;14.13;10.57;;;;;;;6.19;83.90;100563.81;5112359;28;20114;-70
2021/10/26 23:48:40;;;;;;;17.73;10.67;;;;;;;6.15;84.05;100551.03;5093602;28;20077;-67
2021/10/26 23:51:05;;;;;;;15.00;11.63;;;;;;;6.26;83.81;100566.75;5112137;28;20034;-69
2021/10/26 23:53:31;;;;;;;17.07;12.70;;;;;;;6.18;83.94;100550.75;5112273;28;20055;-67
2021/10/26 23:55:58;;;;;;;14.30;11.50;;;;;;;6.23;84.33;100561.75;5115441;28;20488;-68
2021/10/26 23:58:24;;;;;;;13.77;11.57;;;;;;;6.27;83.82;100557.84;5116431;28;20494;-71
